sensor_id;sensor_type;location;lat;lon;timestamp;P1;durP1;ratioP1;P2;durP2;ratioP2
4313;SDS011;2170;48.794;9.182;2023-04-25T00:02:46;2.10;;;2.00;;
4313;SDS011;2170;48.794;9.182;2023-04-25T00:05:16;2.30;;;2.20;;
4313;SDS011;2170;48.794;9.182;2023-04-25T00:07:48;2.70;;;2.50;;
4313;SDS011;2170;48.794;9.182;2023-04-25T00:10:41;2.00;;;1.90;;
4313;SDS011;2170;48.794;9.182;2023-04-25T00:13:32;1.87;;;1.77;;
4313;SDS011;2170;48.794;9.182;2023-04-25T00:16:09;2.00;;;1.90;;
4313;SDS011;2170;48.794;9.182;2023-04-25T00:18:51;2.50;;;2.30;;
4313;SDS011;2170;48.794;9.182;2023-04-25T00:21:28;2.90;;;2.80;;
4313;SDS011;2170;48.794;9.182;2023-04-25T00:24:19;2.30;;;2.10;;
4313;SDS011;2170;48.794;9.182;2023-04-25T00:26:57;3.13;;;2.97;;
4313;SDS011;2170;48.794;9.182;2023-04-25T00:31:36;2.80;;;2.60;;
4313;SDS011;2170;48.794;9.182;2023-04-25T00:32:53;2.30;;;2.20;;
4313;SDS011;2170;48.794;9.182;2023-04-25T00:35:32;2.70;;;2.60;;
4313;SDS011;2170;48.794;9.182;2023-04-25T00:38:18;2.50;;;2.40;;
4313;SDS011;2170;48.794;9.182;2023-04-25T00:40:52;2.10;;;2.00;;
4313;SDS011;2170;48.794;9.182;2023-04-25T00:43:22;2.40;;;2.30;;
4313;SDS011;2170;48.794;9.182;2023-04-25T00:45:50;2.40;;;2.20;;
4313;SDS011;2170;48.794;9.182;2023-04-25T00:48:31;3.00;;;2.50;;
4313;SDS011;2170;48.794;9.182;2023-04-25T00:51:00;3.63;;;2.90;;
4313;SDS011;2170;48.794;9.182;2023-04-25T00:53:28;2.37;;;2.27;;
4313;SDS011;2170;48.794;9.182;2023-04-25T00:56:00;2.20;;;2.07;;
4313;SDS011;2170;48.794;9.182;2023-04-25T00:58:36;2.73;;;2.40;;
4313;SDS011;2170;48.794;9.182;2023-04-25T01:01:11;2.67;;;2.47;;
4313;SDS011;2170;48.794;9.182;2023-04-25T01:03:43;4.23;;;2.27;;
4313;SDS011;2170;48.794;9.182;2023-04-25T01:06:27;3.20;;;2.43;;
4313;SDS011;2170;48.794;9.182;2023-04-25T01:08:55;2.70;;;2.50;;
4313;SDS011;2170;48.794;9.182;2023-04-25T01:11:29;3.37;;;2.60;;
4313;SDS011;2170;48.794;9.182;2023-04-25T01:14:06;2.90;;;2.70;;
4313;SDS011;2170;48.794;9.182;2023-04-25T01:16:47;2.43;;;2.33;;
4313;SDS011;2170;48.794;9.182;2023-04-25T01:19:27;3.33;;;3.03;;
4313;SDS011;2170;48.794;9.182;2023-04-25T01:22:16;2.80;;;2.60;;
4313;SDS011;2170;48.794;9.182;2023-04-25T01:24:58;3.10;;;2.33;;
4313;SDS011;2170;48.794;9.182;2023-04-25T01:27:27;2.67;;;2.47;;
4313;SDS011;2170;48.794;9.182;2023-04-25T01:30:07;2.60;;;2.50;;
4313;SDS011;2170;48.794;9.182;2023-04-25T01:32:54;2.70;;;2.50;;
4313;SDS011;2170;48.794;9.182;2023-04-25T01:35:28;2.70;;;2.50;;
4313;SDS011;2170;48.794;9.182;2023-04-25T01:38:01;2.60;;;2.50;;
4313;SDS011;2170;48.794;9.182;2023-04-25T01:40:39;2.83;;;2.63;;
4313;SDS011;2170;48.794;9.182;2023-04-25T01:43:16;3.30;;;3.10;;
4313;SDS011;2170;48.794;9.182;2023-04-25T01:45:51;3.20;;;3.00;;
4313;SDS011;2170;48.794;9.182;2023-04-25T01:48:28;3.00;;;2.80;;
4313;SDS011;2170;48.794;9.182;2023-04-25T01:51:13;6.03;;;4.10;;
4313;SDS011;2170;48.794;9.182;2023-04-25T01:53:43;2.53;;;2.43;;
4313;SDS011;2170;48.794;9.182;2023-04-25T01:56:27;4.30;;;3.30;;
4313;SDS011;2170;48.794;9.182;2023-04-25T01:59:06;3.30;;;3.10;;
4313;SDS011;2170;48.794;9.182;2023-04-25T02:01:40;3.60;;;3.40;;
4313;SDS011;2170;48.794;9.182;2023-04-25T02:04:08;3.30;;;3.00;;
4313;SDS011;2170;48.794;9.182;2023-04-25T02:06:45;3.00;;;2.80;;
4313;SDS011;2170;48.794;9.182;2023-04-25T02:09:18;3.33;;;3.07;;
4313;SDS011;2170;48.794;9.182;2023-04-25T02:11:47;2.90;;;2.80;;
4313;SDS011;2170;48.794;9.182;2023-04-25T02:14:15;3.70;;;3.00;;
4313;SDS011;2170;48.794;9.182;2023-04-25T02:16:43;3.00;;;2.77;;
4313;SDS011;2170;48.794;9.182;2023-04-25T02:19:11;3.20;;;3.00;;
4313;SDS011;2170;48.794;9.182;2023-04-25T02:21:45;3.00;;;2.80;;
4313;SDS011;2170;48.794;9.182;2023-04-25T02:24:17;3.77;;;2.77;;
4313;SDS011;2170;48.794;9.182;2023-04-25T02:26:50;3.03;;;2.83;;
4313;SDS011;2170;48.794;9.182;2023-04-25T02:29:20;2.90;;;2.70;;
4313;SDS011;2170;48.794;9.182;2023-04-25T02:31:51;3.53;;;3.10;;
4313;SDS011;2170;48.794;9.182;2023-04-25T02:34:19;2.67;;;2.57;;
4313;SDS011;2170;48.794;9.182;2023-04-25T02:36:51;3.60;;;2.93;;
4313;SDS011;2170;48.794;9.182;2023-04-25T02:39:27;2.40;;;2.30;;
4313;SDS011;2170;48.794;9.182;2023-04-25T02:42:08;3.30;;;3.10;;
4313;SDS011;2170;48.794;9.182;2023-04-25T02:44:45;3.23;;;2.93;;
4313;SDS011;2170;48.794;9.182;2023-04-25T02:47:14;3.17;;;2.97;;
4313;SDS011;2170;48.794;9.182;2023-04-25T02:49:52;3.30;;;2.70;;
4313;SDS011;2170;48.794;9.182;2023-04-25T02:52:31;3.23;;;2.43;;
4313;SDS011;2170;48.794;9.182;2023-04-25T02:55:11;3.33;;;3.03;;
4313;SDS011;2170;48.794;9.182;2023-04-25T02:57:43;2.90;;;2.70;;
4313;SDS011;2170;48.794;9.182;2023-04-25T03:03:15;2.97;;;2.77;;
4313;SDS011;2170;48.794;9.182;2023-04-25T03:05:47;3.53;;;2.90;;
4313;SDS011;2170;48.794;9.182;2023-04-25T03:08:16;2.97;;;2.80;;
4313;SDS011;2170;48.794;9.182;2023-04-25T03:10:56;3.90;;;2.90;;
4313;SDS011;2170;48.794;9.182;2023-04-25T03:13:30;3.23;;;2.93;;
4313;SDS011;2170;48.794;9.182;2023-04-25T03:16:14;2.90;;;2.70;;
4313;SDS011;2170;48.794;9.182;2023-04-25T03:18:49;2.90;;;2.70;;
4313;SDS011;2170;48.794;9.182;2023-04-25T03:21:19;3.07;;;2.83;;
4313;SDS011;2170;48.794;9.182;2023-04-25T03:23:54;3.60;;;3.30;;
4313;SDS011;2170;48.794;9.182;2023-04-25T03:26:30;4.17;;;3.87;;
4313;SDS011;2170;48.794;9.182;2023-04-25T03:29:05;4.90;;;3.40;;
4313;SDS011;2170;48.794;9.182;2023-04-25T03:31:37;2.80;;;2.70;;
4313;SDS011;2170;48.794;9.182;2023-04-25T03:34:17;2.83;;;2.73;;
4313;SDS011;2170;48.794;9.182;2023-04-25T03:36:46;3.03;;;2.83;;
4313;SDS011;2170;48.794;9.182;2023-04-25T03:39:14;3.23;;;3.03;;
4313;SDS011;2170;48.794;9.182;2023-04-25T03:41:44;3.83;;;3.50;;
4313;SDS011;2170;48.794;9.182;2023-04-25T03:44:12;2.83;;;2.73;;
4313;SDS011;2170;48.794;9.182;2023-04-25T03:46:40;3.27;;;3.07;;
4313;SDS011;2170;48.794;9.182;2023-04-25T03:49:23;4.73;;;4.37;;
4313;SDS011;2170;48.794;9.182;2023-04-25T03:51:54;3.43;;;3.13;;
4313;SDS011;2170;48.794;9.182;2023-04-25T03:54:32;3.33;;;3.13;;
4313;SDS011;2170;48.794;9.182;2023-04-25T03:57:03;4.27;;;3.97;;
4313;SDS011;2170;48.794;9.182;2023-04-25T03:59:31;3.53;;;3.23;;
4313;SDS011;2170;48.794;9.182;2023-04-25T04:01:59;3.60;;;3.30;;
4313;SDS011;2170;48.794;9.182;2023-04-25T04:04:27;3.60;;;3.40;;
4313;SDS011;2170;48.794;9.182;2023-04-25T04:07:03;3.60;;;3.30;;
4313;SDS011;2170;48.794;9.182;2023-04-25T04:09:31;3.80;;;3.50;;
4313;SDS011;2170;48.794;9.182;2023-04-25T04:12:09;4.10;;;3.20;;
4313;SDS011;2170;48.794;9.182;2023-04-25T04:14:37;3.70;;;3.40;;
4313;SDS011;2170;48.794;9.182;2023-04-25T04:17:05;3.60;;;3.30;;
4313;SDS011;2170;48.794;9.182;2023-04-25T04:19:35;4.13;;;3.50;;
4313;SDS011;2170;48.794;9.182;2023-04-25T04:22:04;3.83;;;3.27;;
4313;SDS011;2170;48.794;9.182;2023-04-25T04:24:35;3.37;;;3.07;;
4313;SDS011;2170;48.794;9.182;2023-04-25T04:27:09;5.70;;;3.30;;
4313;SDS011;2170;48.794;9.182;2023-04-25T04:29:39;3.87;;;3.57;;
4313;SDS011;2170;48.794;9.182;2023-04-25T04:32:07;3.33;;;3.13;;
4313;SDS011;2170;48.794;9.182;2023-04-25T04:34:39;4.10;;;3.80;;
4313;SDS011;2170;48.794;9.182;2023-04-25T04:37:12;3.80;;;3.60;;
4313;SDS011;2170;48.794;9.182;2023-04-25T04:39:45;3.90;;;3.60;;
4313;SDS011;2170;48.794;9.182;2023-04-25T04:42:19;4.40;;;4.00;;
4313;SDS011;2170;48.794;9.182;2023-04-25T04:44:47;4.03;;;3.60;;
4313;SDS011;2170;48.794;9.182;2023-04-25T04:47:24;4.10;;;3.73;;
4313;SDS011;2170;48.794;9.182;2023-04-25T04:49:56;4.13;;;3.80;;
4313;SDS011;2170;48.794;9.182;2023-04-25T04:52:24;4.20;;;3.90;;
4313;SDS011;2170;48.794;9.182;2023-04-25T04:54:51;4.63;;;4.00;;
4313;SDS011;2170;48.794;9.182;2023-04-25T04:57:20;5.37;;;4.77;;
4313;SDS011;2170;48.794;9.182;2023-04-25T04:59:48;4.30;;;4.00;;
4313;SDS011;2170;48.794;9.182;2023-04-25T05:02:19;4.63;;;4.27;;
4313;SDS011;2170;48.794;9.182;2023-04-25T05:04:46;3.70;;;3.50;;
4313;SDS011;2170;48.794;9.182;2023-04-25T05:07:15;4.20;;;3.70;;
4313;SDS011;2170;48.794;9.182;2023-04-25T05:09:43;4.50;;;4.10;;
4313;SDS011;2170;48.794;9.182;2023-04-25T05:12:11;4.90;;;3.83;;
4313;SDS011;2170;48.794;9.182;2023-04-25T05:14:40;4.37;;;3.90;;
4313;SDS011;2170;48.794;9.182;2023-04-25T05:17:10;4.50;;;4.20;;
4313;SDS011;2170;48.794;9.182;2023-04-25T05:19:38;4.30;;;3.90;;
4313;SDS011;2170;48.794;9.182;2023-04-25T05:25:20;4.43;;;4.03;;
4313;SDS011;2170;48.794;9.182;2023-04-25T05:27:49;4.40;;;4.10;;
4313;SDS011;2170;48.794;9.182;2023-04-25T05:30:34;3.93;;;3.63;;
4313;SDS011;2170;48.794;9.182;2023-04-25T05:33:11;5.17;;;4.77;;
4313;SDS011;2170;48.794;9.182;2023-04-25T05:35:42;4.53;;;3.90;;
4313;SDS011;2170;48.794;9.182;2023-04-25T05:38:18;4.20;;;3.90;;
4313;SDS011;2170;48.794;9.182;2023-04-25T05:40:47;5.33;;;4.93;;
4313;SDS011;2170;48.794;9.182;2023-04-25T05:43:26;5.10;;;4.60;;
4313;SDS011;2170;48.794;9.182;2023-04-25T05:46:00;5.03;;;4.53;;
4313;SDS011;2170;48.794;9.182;2023-04-25T05:48:38;5.30;;;4.60;;
4313;SDS011;2170;48.794;9.182;2023-04-25T05:51:07;4.40;;;4.00;;
4313;SDS011;2170;48.794;9.182;2023-04-25T05:53:47;5.07;;;4.57;;
4313;SDS011;2170;48.794;9.182;2023-04-25T05:56:16;4.20;;;3.90;;
4313;SDS011;2170;48.794;9.182;2023-04-25T05:58:48;6.83;;;4.37;;
4313;SDS011;2170;48.794;9.182;2023-04-25T06:01:18;4.20;;;3.90;;
4313;SDS011;2170;48.794;9.182;2023-04-25T06:03:46;4.60;;;4.20;;
4313;SDS011;2170;48.794;9.182;2023-04-25T06:06:22;3.70;;;3.50;;
4313;SDS011;2170;48.794;9.182;2023-04-25T06:08:54;4.83;;;4.50;;
4313;SDS011;2170;48.794;9.182;2023-04-25T06:11:23;4.30;;;3.83;;
4313;SDS011;2170;48.794;9.182;2023-04-25T06:13:51;4.37;;;4.07;;
4313;SDS011;2170;48.794;9.182;2023-04-25T06:16:21;4.00;;;3.70;;
4313;SDS011;2170;48.794;9.182;2023-04-25T06:18:52;4.23;;;4.00;;
4313;SDS011;2170;48.794;9.182;2023-04-25T06:21:20;3.90;;;3.60;;
4313;SDS011;2170;48.794;9.182;2023-04-25T06:23:48;3.67;;;3.40;;
4313;SDS011;2170;48.794;9.182;2023-04-25T06:26:16;3.80;;;3.50;;
4313;SDS011;2170;48.794;9.182;2023-04-25T06:28:44;3.97;;;3.67;;
4313;SDS011;2170;48.794;9.182;2023-04-25T06:31:15;3.80;;;3.47;;
4313;SDS011;2170;48.794;9.182;2023-04-25T06:33:49;3.30;;;3.10;;
4313;SDS011;2170;48.794;9.182;2023-04-25T06:36:20;3.80;;;3.50;;
4313;SDS011;2170;48.794;9.182;2023-04-25T06:38:55;3.50;;;3.30;;
4313;SDS011;2170;48.794;9.182;2023-04-25T06:41:26;4.20;;;3.40;;
4313;SDS011;2170;48.794;9.182;2023-04-25T06:43:56;3.97;;;3.63;;
4313;SDS011;2170;48.794;9.182;2023-04-25T06:46:24;4.23;;;3.70;;
4313;SDS011;2170;48.794;9.182;2023-04-25T06:48:59;4.40;;;3.93;;
4313;SDS011;2170;48.794;9.182;2023-04-25T06:51:27;4.07;;;3.77;;
4313;SDS011;2170;48.794;9.182;2023-04-25T06:53:56;3.93;;;3.53;;
4313;SDS011;2170;48.794;9.182;2023-04-25T06:56:24;3.40;;;3.10;;
4313;SDS011;2170;48.794;9.182;2023-04-25T06:58:51;3.87;;;3.57;;
4313;SDS011;2170;48.794;9.182;2023-04-25T07:01:23;3.87;;;3.57;;
4313;SDS011;2170;48.794;9.182;2023-04-25T07:06:38;4.10;;;3.80;;
4313;SDS011;2170;48.794;9.182;2023-04-25T07:09:07;3.90;;;3.60;;
4313;SDS011;2170;48.794;9.182;2023-04-25T07:11:37;5.10;;;4.70;;
4313;SDS011;2170;48.794;9.182;2023-04-25T07:14:07;5.40;;;5.00;;
4313;SDS011;2170;48.794;9.182;2023-04-25T07:16:39;5.13;;;4.73;;
4313;SDS011;2170;48.794;9.182;2023-04-25T07:19:09;5.70;;;5.20;;
4313;SDS011;2170;48.794;9.182;2023-04-25T07:21:43;5.37;;;4.97;;
4313;SDS011;2170;48.794;9.182;2023-04-25T07:24:13;5.40;;;5.00;;
4313;SDS011;2170;48.794;9.182;2023-04-25T07:26:43;5.33;;;4.93;;
4313;SDS011;2170;48.794;9.182;2023-04-25T07:29:11;5.97;;;5.40;;
4313;SDS011;2170;48.794;9.182;2023-04-25T07:31:51;6.57;;;6.07;;
4313;SDS011;2170;48.794;9.182;2023-04-25T07:34:21;6.30;;;5.80;;
4313;SDS011;2170;48.794;9.182;2023-04-25T07:36:58;8.07;;;7.37;;
4313;SDS011;2170;48.794;9.182;2023-04-25T07:39:31;6.57;;;6.00;;
4313;SDS011;2170;48.794;9.182;2023-04-25T07:42:03;6.23;;;5.63;;
4313;SDS011;2170;48.794;9.182;2023-04-25T07:44:35;5.87;;;5.37;;
4313;SDS011;2170;48.794;9.182;2023-04-25T07:47:08;5.80;;;5.30;;
4313;SDS011;2170;48.794;9.182;2023-04-25T07:49:48;7.50;;;5.50;;
4313;SDS011;2170;48.794;9.182;2023-04-25T07:52:32;5.73;;;5.23;;
4313;SDS011;2170;48.794;9.182;2023-04-25T07:55:06;5.97;;;5.47;;
4313;SDS011;2170;48.794;9.182;2023-04-25T07:57:45;6.23;;;5.40;;
4313;SDS011;2170;48.794;9.182;2023-04-25T08:00:35;7.53;;;5.80;;
4313;SDS011;2170;48.794;9.182;2023-04-25T08:03:23;6.33;;;5.30;;
4313;SDS011;2170;48.794;9.182;2023-04-25T08:05:53;5.97;;;5.07;;
4313;SDS011;2170;48.794;9.182;2023-04-25T08:08:23;5.87;;;5.47;;
4313;SDS011;2170;48.794;9.182;2023-04-25T08:10:51;6.27;;;5.77;;
4313;SDS011;2170;48.794;9.182;2023-04-25T08:16:00;5.80;;;5.30;;
4313;SDS011;2170;48.794;9.182;2023-04-25T08:18:30;5.13;;;4.73;;
4313;SDS011;2170;48.794;9.182;2023-04-25T08:20:59;5.60;;;5.20;;
4313;SDS011;2170;48.794;9.182;2023-04-25T08:23:33;6.10;;;5.60;;
4313;SDS011;2170;48.794;9.182;2023-04-25T08:26:16;5.80;;;5.30;;
4313;SDS011;2170;48.794;9.182;2023-04-25T08:28:46;6.17;;;5.50;;
4313;SDS011;2170;48.794;9.182;2023-04-25T08:31:18;6.50;;;5.83;;
4313;SDS011;2170;48.794;9.182;2023-04-25T08:33:51;5.87;;;5.37;;
4313;SDS011;2170;48.794;9.182;2023-04-25T08:36:23;6.00;;;5.30;;
4313;SDS011;2170;48.794;9.182;2023-04-25T08:38:56;5.90;;;4.77;;
4313;SDS011;2170;48.794;9.182;2023-04-25T08:41:36;5.80;;;5.40;;
4313;SDS011;2170;48.794;9.182;2023-04-25T08:44:22;8.60;;;5.97;;
4313;SDS011;2170;48.794;9.182;2023-04-25T08:49:51;6.00;;;5.50;;
4313;SDS011;2170;48.794;9.182;2023-04-25T08:52:30;5.63;;;5.17;;
4313;SDS011;2170;48.794;9.182;2023-04-25T08:55:12;5.93;;;5.50;;
4313;SDS011;2170;48.794;9.182;2023-04-25T08:57:42;8.30;;;5.67;;
4313;SDS011;2170;48.794;9.182;2023-04-25T09:00:19;5.77;;;5.37;;
4313;SDS011;2170;48.794;9.182;2023-04-25T09:02:54;5.63;;;5.17;;
4313;SDS011;2170;48.794;9.182;2023-04-25T09:05:29;5.27;;;4.67;;
4313;SDS011;2170;48.794;9.182;2023-04-25T09:08:01;6.07;;;5.57;;
4313;SDS011;2170;48.794;9.182;2023-04-25T09:10:39;5.37;;;4.97;;
4313;SDS011;2170;48.794;9.182;2023-04-25T09:13:09;6.10;;;5.60;;
4313;SDS011;2170;48.794;9.182;2023-04-25T09:18:44;5.63;;;5.17;;
4313;SDS011;2170;48.794;9.182;2023-04-25T09:21:44;5.20;;;4.80;;
4313;SDS011;2170;48.794;9.182;2023-04-25T09:24:12;5.60;;;5.20;;
4313;SDS011;2170;48.794;9.182;2023-04-25T09:26:50;5.57;;;4.77;;
4313;SDS011;2170;48.794;9.182;2023-04-25T09:29:24;7.63;;;5.63;;
4313;SDS011;2170;48.794;9.182;2023-04-25T09:32:09;6.73;;;6.13;;
4313;SDS011;2170;48.794;9.182;2023-04-25T09:34:39;6.50;;;6.00;;
4313;SDS011;2170;48.794;9.182;2023-04-25T09:37:08;5.70;;;5.30;;
4313;SDS011;2170;48.794;9.182;2023-04-25T09:39:44;5.87;;;5.47;;
4313;SDS011;2170;48.794;9.182;2023-04-25T09:42:15;9.43;;;5.53;;
4313;SDS011;2170;48.794;9.182;2023-04-25T09:44:49;6.40;;;5.90;;
4313;SDS011;2170;48.794;9.182;2023-04-25T09:47:25;5.57;;;5.17;;
4313;SDS011;2170;48.794;9.182;2023-04-25T09:49:55;5.73;;;5.30;;
4313;SDS011;2170;48.794;9.182;2023-04-25T09:52:33;9.30;;;6.10;;
4313;SDS011;2170;48.794;9.182;2023-04-25T09:55:18;5.03;;;4.63;;
4313;SDS011;2170;48.794;9.182;2023-04-25T09:58:15;6.97;;;6.27;;
4313;SDS011;2170;48.794;9.182;2023-04-25T10:00:43;5.90;;;5.17;;
4313;SDS011;2170;48.794;9.182;2023-04-25T10:03:16;5.60;;;5.20;;
4313;SDS011;2170;48.794;9.182;2023-04-25T10:05:48;5.20;;;4.80;;
4313;SDS011;2170;48.794;9.182;2023-04-25T10:08:17;4.37;;;4.07;;
4313;SDS011;2170;48.794;9.182;2023-04-25T10:10:47;4.00;;;3.80;;
4313;SDS011;2170;48.794;9.182;2023-04-25T10:13:20;4.60;;;4.20;;
4313;SDS011;2170;48.794;9.182;2023-04-25T10:15:48;4.63;;;4.23;;
4313;SDS011;2170;48.794;9.182;2023-04-25T10:18:21;4.77;;;4.47;;
4313;SDS011;2170;48.794;9.182;2023-04-25T10:21:08;6.30;;;5.80;;
4313;SDS011;2170;48.794;9.182;2023-04-25T10:23:47;8.33;;;6.53;;
4313;SDS011;2170;48.794;9.182;2023-04-25T10:26:23;6.00;;;5.40;;
4313;SDS011;2170;48.794;9.182;2023-04-25T10:29:02;5.90;;;5.50;;
4313;SDS011;2170;48.794;9.182;2023-04-25T10:31:46;4.47;;;4.17;;
4313;SDS011;2170;48.794;9.182;2023-04-25T10:34:16;5.20;;;4.80;;
4313;SDS011;2170;48.794;9.182;2023-04-25T10:36:59;3.20;;;3.00;;
4313;SDS011;2170;48.794;9.182;2023-04-25T10:39:30;3.40;;;3.20;;
4313;SDS011;2170;48.794;9.182;2023-04-25T10:42:27;3.03;;;2.83;;
4313;SDS011;2170;48.794;9.182;2023-04-25T10:45:07;2.80;;;2.60;;
4313;SDS011;2170;48.794;9.182;2023-04-25T10:47:47;3.90;;;3.60;;
4313;SDS011;2170;48.794;9.182;2023-04-25T10:50:17;4.17;;;3.90;;
4313;SDS011;2170;48.794;9.182;2023-04-25T10:52:48;5.70;;;5.20;;
4313;SDS011;2170;48.794;9.182;2023-04-25T10:55:23;6.60;;;6.03;;
4313;SDS011;2170;48.794;9.182;2023-04-25T10:57:51;6.33;;;5.73;;
4313;SDS011;2170;48.794;9.182;2023-04-25T11:00:31;6.60;;;6.07;;
4313;SDS011;2170;48.794;9.182;2023-04-25T11:03:09;5.63;;;5.03;;
4313;SDS011;2170;48.794;9.182;2023-04-25T11:05:59;4.93;;;4.53;;
4313;SDS011;2170;48.794;9.182;2023-04-25T11:08:43;3.30;;;3.10;;
4313;SDS011;2170;48.794;9.182;2023-04-25T11:11:21;6.10;;;4.53;;
4313;SDS011;2170;48.794;9.182;2023-04-25T11:13:49;5.63;;;5.17;;
4313;SDS011;2170;48.794;9.182;2023-04-25T11:16:26;5.37;;;4.90;;
4313;SDS011;2170;48.794;9.182;2023-04-25T11:18:57;4.70;;;4.30;;
4313;SDS011;2170;48.794;9.182;2023-04-25T11:21:25;4.50;;;4.10;;
4313;SDS011;2170;48.794;9.182;2023-04-25T11:23:58;5.07;;;4.67;;
4313;SDS011;2170;48.794;9.182;2023-04-25T11:26:37;5.27;;;4.87;;
4313;SDS011;2170;48.794;9.182;2023-04-25T11:29:15;4.70;;;4.30;;
4313;SDS011;2170;48.794;9.182;2023-04-25T11:31:51;3.40;;;3.20;;
4313;SDS011;2170;48.794;9.182;2023-04-25T11:34:28;4.17;;;3.90;;
4313;SDS011;2170;48.794;9.182;2023-04-25T11:37:01;3.40;;;3.20;;
4313;SDS011;2170;48.794;9.182;2023-04-25T11:39:32;3.80;;;3.60;;
4313;SDS011;2170;48.794;9.182;2023-04-25T11:42:01;3.03;;;2.87;;
4313;SDS011;2170;48.794;9.182;2023-04-25T11:44:52;3.37;;;3.17;;
4313;SDS011;2170;48.794;9.182;2023-04-25T11:47:33;3.30;;;3.10;;
4313;SDS011;2170;48.794;9.182;2023-04-25T11:50:11;3.30;;;3.10;;
4313;SDS011;2170;48.794;9.182;2023-04-25T11:52:46;3.90;;;3.70;;
4313;SDS011;2170;48.794;9.182;2023-04-25T11:55:16;4.50;;;4.13;;
4313;SDS011;2170;48.794;9.182;2023-04-25T11:58:02;4.90;;;4.60;;
4313;SDS011;2170;48.794;9.182;2023-04-25T12:00:31;4.57;;;4.20;;
4313;SDS011;2170;48.794;9.182;2023-04-25T12:03:02;5.27;;;4.50;;
4313;SDS011;2170;48.794;9.182;2023-04-25T12:05:33;5.07;;;4.67;;
4313;SDS011;2170;48.794;9.182;2023-04-25T12:08:12;4.77;;;4.47;;
4313;SDS011;2170;48.794;9.182;2023-04-25T12:10:45;5.70;;;5.10;;
4313;SDS011;2170;48.794;9.182;2023-04-25T12:13:19;4.87;;;4.53;;
4313;SDS011;2170;48.794;9.182;2023-04-25T12:15:49;5.43;;;4.63;;
4313;SDS011;2170;48.794;9.182;2023-04-25T12:18:22;5.67;;;5.17;;
4313;SDS011;2170;48.794;9.182;2023-04-25T12:20:52;6.00;;;5.40;;
4313;SDS011;2170;48.794;9.182;2023-04-25T12:23:25;5.33;;;4.93;;
4313;SDS011;2170;48.794;9.182;2023-04-25T12:25:56;6.63;;;5.53;;
4313;SDS011;2170;48.794;9.182;2023-04-25T12:28:28;6.10;;;5.60;;
4313;SDS011;2170;48.794;9.182;2023-04-25T12:30:58;5.27;;;4.87;;
4313;SDS011;2170;48.794;9.182;2023-04-25T12:33:28;6.00;;;5.50;;
4313;SDS011;2170;48.794;9.182;2023-04-25T12:36:00;6.83;;;6.23;;
4313;SDS011;2170;48.794;9.182;2023-04-25T12:38:36;6.70;;;5.87;;
4313;SDS011;2170;48.794;9.182;2023-04-25T12:41:05;7.90;;;7.20;;
4313;SDS011;2170;48.794;9.182;2023-04-25T12:43:34;7.40;;;6.63;;
4313;SDS011;2170;48.794;9.182;2023-04-25T12:46:07;8.57;;;6.87;;
4313;SDS011;2170;48.794;9.182;2023-04-25T12:48:44;7.47;;;6.77;;
4313;SDS011;2170;48.794;9.182;2023-04-25T12:51:20;7.50;;;6.70;;
4313;SDS011;2170;48.794;9.182;2023-04-25T12:53:52;7.93;;;7.13;;
4313;SDS011;2170;48.794;9.182;2023-04-25T12:56:23;8.20;;;7.50;;
4313;SDS011;2170;48.794;9.182;2023-04-25T12:59:00;10.47;;;7.03;;
4313;SDS011;2170;48.794;9.182;2023-04-25T13:01:30;7.70;;;7.10;;
4313;SDS011;2170;48.794;9.182;2023-04-25T13:04:02;7.60;;;6.83;;
4313;SDS011;2170;48.794;9.182;2023-04-25T13:06:35;7.93;;;7.07;;
4313;SDS011;2170;48.794;9.182;2023-04-25T13:09:10;7.00;;;6.33;;
4313;SDS011;2170;48.794;9.182;2023-04-25T13:11:41;8.10;;;6.90;;
4313;SDS011;2170;48.794;9.182;2023-04-25T13:14:14;7.37;;;6.77;;
4313;SDS011;2170;48.794;9.182;2023-04-25T13:16:45;7.10;;;6.50;;
4313;SDS011;2170;48.794;9.182;2023-04-25T13:19:18;6.70;;;6.10;;
4313;SDS011;2170;48.794;9.182;2023-04-25T13:21:47;7.20;;;6.50;;
4313;SDS011;2170;48.794;9.182;2023-04-25T13:24:18;7.40;;;6.70;;
4313;SDS011;2170;48.794;9.182;2023-04-25T13:26:46;8.40;;;7.50;;
4313;SDS011;2170;48.794;9.182;2023-04-25T13:29:22;7.73;;;7.13;;
4313;SDS011;2170;48.794;9.182;2023-04-25T13:31:51;7.87;;;7.27;;
4313;SDS011;2170;48.794;9.182;2023-04-25T13:34:32;7.90;;;7.20;;
4313;SDS011;2170;48.794;9.182;2023-04-25T13:37:07;8.73;;;7.53;;
4313;SDS011;2170;48.794;9.182;2023-04-25T13:39:37;7.33;;;6.73;;
4313;SDS011;2170;48.794;9.182;2023-04-25T13:42:05;8.67;;;7.93;;
4313;SDS011;2170;48.794;9.182;2023-04-25T13:44:35;10.10;;;9.10;;
4313;SDS011;2170;48.794;9.182;2023-04-25T13:47:20;10.23;;;9.23;;
4313;SDS011;2170;48.794;9.182;2023-04-25T13:49:49;11.87;;;9.87;;
4313;SDS011;2170;48.794;9.182;2023-04-25T13:52:22;11.80;;;10.60;;
4313;SDS011;2170;48.794;9.182;2023-04-25T13:54:55;11.27;;;10.10;;
4313;SDS011;2170;48.794;9.182;2023-04-25T13:57:34;11.43;;;9.90;;
4313;SDS011;2170;48.794;9.182;2023-04-25T14:00:04;11.53;;;10.40;;
4313;SDS011;2170;48.794;9.182;2023-04-25T14:02:34;11.00;;;10.10;;
4313;SDS011;2170;48.794;9.182;2023-04-25T14:05:13;12.40;;;10.23;;
4313;SDS011;2170;48.794;9.182;2023-04-25T14:07:42;11.40;;;10.30;;
4313;SDS011;2170;48.794;9.182;2023-04-25T14:10:16;11.60;;;10.50;;
4313;SDS011;2170;48.794;9.182;2023-04-25T14:12:43;10.10;;;9.20;;
4313;SDS011;2170;48.794;9.182;2023-04-25T14:15:10;13.97;;;9.40;;
4313;SDS011;2170;48.794;9.182;2023-04-25T14:17:38;10.90;;;9.87;;
4313;SDS011;2170;48.794;9.182;2023-04-25T14:20:06;10.97;;;9.77;;
4313;SDS011;2170;48.794;9.182;2023-04-25T14:22:35;8.93;;;8.33;;
4313;SDS011;2170;48.794;9.182;2023-04-25T14:25:06;11.40;;;8.40;;
4313;SDS011;2170;48.794;9.182;2023-04-25T14:27:34;9.93;;;9.00;;
4313;SDS011;2170;48.794;9.182;2023-04-25T14:30:02;8.50;;;7.70;;
4313;SDS011;2170;48.794;9.182;2023-04-25T14:32:32;8.20;;;7.40;;
4313;SDS011;2170;48.794;9.182;2023-04-25T14:34:59;7.57;;;6.97;;
4313;SDS011;2170;48.794;9.182;2023-04-25T14:37:27;7.80;;;6.50;;
4313;SDS011;2170;48.794;9.182;2023-04-25T14:39:55;6.87;;;6.27;;
4313;SDS011;2170;48.794;9.182;2023-04-25T14:42:23;6.80;;;6.20;;
4313;SDS011;2170;48.794;9.182;2023-04-25T14:44:53;7.43;;;6.93;;
4313;SDS011;2170;48.794;9.182;2023-04-25T14:47:21;7.17;;;6.43;;
4313;SDS011;2170;48.794;9.182;2023-04-25T14:49:48;7.00;;;6.40;;
4313;SDS011;2170;48.794;9.182;2023-04-25T14:52:27;7.63;;;6.43;;
4313;SDS011;2170;48.794;9.182;2023-04-25T14:55:09;6.53;;;5.93;;
4313;SDS011;2170;48.794;9.182;2023-04-25T14:57:37;6.60;;;6.00;;
4313;SDS011;2170;48.794;9.182;2023-04-25T15:00:05;6.30;;;5.83;;
4313;SDS011;2170;48.794;9.182;2023-04-25T15:02:34;6.43;;;5.83;;
4313;SDS011;2170;48.794;9.182;2023-04-25T15:05:02;7.00;;;6.30;;
4313;SDS011;2170;48.794;9.182;2023-04-25T15:07:29;7.63;;;6.80;;
4313;SDS011;2170;48.794;9.182;2023-04-25T15:09:56;8.03;;;7.33;;
4313;SDS011;2170;48.794;9.182;2023-04-25T15:12:25;8.10;;;7.30;;
4313;SDS011;2170;48.794;9.182;2023-04-25T15:14:53;7.43;;;6.83;;
4313;SDS011;2170;48.794;9.182;2023-04-25T15:17:20;8.13;;;7.33;;
4313;SDS011;2170;48.794;9.182;2023-04-25T15:19:48;9.33;;;8.43;;
4313;SDS011;2170;48.794;9.182;2023-04-25T15:22:15;8.37;;;7.67;;
4313;SDS011;2170;48.794;9.182;2023-04-25T15:24:45;7.53;;;6.70;;
4313;SDS011;2170;48.794;9.182;2023-04-25T15:27:12;7.80;;;7.20;;
4313;SDS011;2170;48.794;9.182;2023-04-25T15:29:41;8.70;;;7.90;;
4313;SDS011;2170;48.794;9.182;2023-04-25T15:32:08;8.27;;;7.50;;
4313;SDS011;2170;48.794;9.182;2023-04-25T15:34:37;7.40;;;6.80;;
4313;SDS011;2170;48.794;9.182;2023-04-25T15:37:08;6.67;;;6.17;;
4313;SDS011;2170;48.794;9.182;2023-04-25T15:39:38;9.70;;;7.83;;
4313;SDS011;2170;48.794;9.182;2023-04-25T15:42:07;6.87;;;6.30;;
4313;SDS011;2170;48.794;9.182;2023-04-25T15:44:43;6.50;;;5.90;;
4313;SDS011;2170;48.794;9.182;2023-04-25T15:47:25;6.43;;;5.93;;
4313;SDS011;2170;48.794;9.182;2023-04-25T15:49:52;5.90;;;5.40;;
4313;SDS011;2170;48.794;9.182;2023-04-25T15:52:19;6.90;;;6.20;;
4313;SDS011;2170;48.794;9.182;2023-04-25T15:54:47;6.40;;;5.50;;
4313;SDS011;2170;48.794;9.182;2023-04-25T15:57:19;6.53;;;6.03;;
4313;SDS011;2170;48.794;9.182;2023-04-25T15:59:49;6.80;;;6.20;;
4313;SDS011;2170;48.794;9.182;2023-04-25T16:02:20;7.07;;;6.47;;
4313;SDS011;2170;48.794;9.182;2023-04-25T16:04:51;8.23;;;6.93;;
4313;SDS011;2170;48.794;9.182;2023-04-25T16:07:20;8.10;;;7.40;;
4313;SDS011;2170;48.794;9.182;2023-04-25T16:09:47;7.03;;;6.43;;
4313;SDS011;2170;48.794;9.182;2023-04-25T16:12:15;7.60;;;6.90;;